Time;durP1;ratioP1;P1;durP2;ratioP2;P2;SDS_P1;SDS_P2;PMS_P1;PMS_P2;Temp;Humidity;BMP_temperature;BMP_pressure;BME280_temperature;BME280_humidity;BME280_pressure;Samples;Min_cycle;Max_cycle;Signal;HPM_P1;HPM_P2
2021/11/16 00:02:14;;;;;;;66.20;33.90;;;;;;;5.78;82.97;101894.28;5027062;28;20662;-80
2021/11/16 00:04:42;;;;;;;61.87;32.87;;;;;;;5.80;82.57;101896.94;5025165;28;20507;-80
2021/11/16 00:07:09;;;;;;;68.80;33.43;;;;;;;5.74;83.02;101888.16;5026249;28;20259;-80
2021/11/16 00:09:36;;;;;;;63.23;33.27;;;;;;;5.75;83.68;101883.88;5023842;28;20284;-80
2021/11/16 00:12:02;;;;;;;69.20;34.43;;;;;;;5.76;83.22;101881.28;5027962;28;20278;-80
2021/11/16 00:14:30;;;;;;;65.87;34.43;;;;;;;5.81;83.32;101875.34;5023447;28;20209;-80
2021/11/16 00:16:57;;;;;;;67.53;34.37;;;;;;;5.81;83.82;101865.88;5022136;28;20331;-81
2021/11/16 00:19:24;;;;;;;65.40;33.47;;;;;;;5.80;83.57;101860.66;5025212;28;20217;-79
2021/11/16 00:21:52;;;;;;;68.70;33.20;;;;;;;5.82;83.21;101867.63;5040983;28;20287;-80
2021/11/16 00:24:22;;;;;;;63.83;34.10;;;;;;;5.83;83.78;101859.00;5036535;28;20206;-80
2021/11/16 00:26:48;;;;;;;69.13;33.93;;;;;;;5.82;83.56;101865.03;5036369;28;20201;-80
2021/11/16 00:29:15;;;;;;;62.03;32.60;;;;;;;5.78;83.97;101866.66;5039078;28;20245;-81
2021/11/16 00:31:42;;;;;;;67.67;34.57;;;;;;;5.82;84.18;101852.06;5038409;28;20275;-80
2021/11/16 00:34:09;;;;;;;72.67;34.00;;;;;;;5.78;84.11;101840.75;5035704;28;20263;-81
2021/11/16 00:36:36;;;;;;;75.13;35.63;;;;;;;5.81;83.81;101841.66;5038539;28;20232;-81
2021/11/16 00:39:04;;;;;;;67.17;33.77;;;;;;;5.80;84.45;101839.94;5036446;28;20216;-80
2021/11/16 00:41:31;;;;;;;63.47;31.80;;;;;;;5.79;83.41;101839.06;5029284;28;20230;-80
2021/11/16 00:43:57;;;;;;;70.67;32.67;;;;;;;5.76;84.17;101831.19;5032864;28;20277;-80
2021/11/16 00:46:23;;;;;;;67.23;33.13;;;;;;;5.77;84.20;101832.97;5032654;28;20235;-80
2021/11/16 00:48:50;;;;;;;66.83;33.87;;;;;;;5.77;84.46;101820.88;5039485;28;20206;-80
2021/11/16 00:51:16;;;;;;;66.50;33.00;;;;;;;5.83;84.71;101814.06;5037562;28;20323;-80
2021/11/16 00:53:43;;;;;;;63.87;33.57;;;;;;;5.76;84.66;101807.88;5033904;28;20214;-80
2021/11/16 00:56:11;;;;;;;78.87;35.53;;;;;;;5.79;84.27;101813.16;5031644;28;20248;-80
2021/11/16 00:58:38;;;;;;;72.60;33.20;;;;;;;5.84;84.21;101819.28;5035866;28;20267;-80
2021/11/16 01:01:05;;;;;;;70.80;34.13;;;;;;;5.85;84.17;101823.66;5032014;28;20225;-79
2021/11/16 01:03:32;;;;;;;64.83;33.30;;;;;;;5.85;83.56;101826.25;5040655;28;20210;-79
2021/11/16 01:05:59;;;;;;;69.53;32.80;;;;;;;5.83;83.20;101839.97;5038553;28;20237;-81
2021/11/16 01:08:25;;;;;;;72.27;33.80;;;;;;;5.74;83.22;101835.47;5035088;28;20208;-80
2021/11/16 01:10:54;;;;;;;65.77;32.47;;;;;;;5.76;83.96;101826.03;5037856;28;20239;-81
2021/11/16 01:13:24;;;;;;;65.53;32.70;;;;;;;5.75;83.59;101829.47;5036891;28;20270;-80
2021/11/16 01:15:52;;;;;;;61.10;31.70;;;;;;;5.73;83.67;101831.16;5034162;28;20207;-79
2021/11/16 01:18:20;;;;;;;64.70;31.77;;;;;;;5.77;83.53;101826.06;5034519;28;20268;-80
2021/11/16 01:20:50;;;;;;;66.67;32.70;;;;;;;5.78;83.72;101839.88;5042765;28;20289;-79
2021/11/16 01:23:19;;;;;;;66.93;32.13;;;;;;;5.76;83.46;101832.06;5040053;28;20211;-80
2021/11/16 01:25:46;;;;;;;68.70;33.17;;;;;;;5.71;83.58;101831.09;5041030;28;20247;-79
2021/11/16 01:28:17;;;;;;;70.57;34.43;;;;;;;5.71;83.43;101817.28;5036475;28;20216;-81
2021/11/16 01:30:49;;;;;;;70.97;33.37;;;;;;;5.69;83.67;101811.16;5038276;28;20225;-80
2021/11/16 01:33:20;;;;;;;74.47;34.40;;;;;;;5.66;83.70;101792.97;5041595;28;20240;-80
2021/11/16 01:35:48;;;;;;;72.33;33.20;;;;;;;5.70;83.99;101794.78;5033714;28;20273;-80
2021/11/16 01:38:16;;;;;;;66.50;33.67;;;;;;;5.69;84.26;101787.84;5034928;28;20233;-80
2021/11/16 01:40:44;;;;;;;64.30;32.97;;;;;;;5.65;84.26;101771.38;5038516;28;20243;-80
2021/11/16 01:43:11;;;;;;;72.17;34.83;;;;;;;5.68;84.45;101774.03;5039293;28;20244;-81
2021/11/16 01:45:38;;;;;;;70.47;34.20;;;;;;;5.68;83.84;101773.16;5037559;28;20286;-79
2021/11/16 01:48:07;;;;;;;68.90;33.43;;;;;;;5.66;84.09;101772.25;5042562;28;20207;-79
2021/11/16 01:50:34;;;;;;;70.23;34.03;;;;;;;5.65;84.40;101761.03;5041520;28;20216;-79
2021/11/16 01:53:01;;;;;;;68.97;33.70;;;;;;;5.71;84.27;101760.28;5037081;28;20204;-80
2021/11/16 01:55:28;;;;;;;71.00;32.63;;;;;;;5.74;84.50;101766.38;5040856;28;20194;-79
2021/11/16 01:57:55;;;;;;;70.27;33.10;;;;;;;5.75;84.59;101756.91;5042937;28;20233;-79
2021/11/16 02:00:27;;;;;;;69.57;34.57;;;;;;;5.73;84.01;101763.78;5042903;28;20326;-79
2021/11/16 02:02:53;;;;;;;73.70;34.03;;;;;;;5.70;84.01;101753.34;5042788;28;20190;-79
2021/11/16 02:05:35;;;;;;;74.30;34.00;;;;;;;5.72;84.86;101744.75;5042400;28;20200;-79
2021/11/16 02:08:02;;;;;;;76.47;33.70;;;;;;;5.70;84.76;101736.06;5042758;28;20200;-79
2021/11/16 02:10:28;;;;;;;71.97;34.87;;;;;;;5.65;85.27;101727.34;5042225;28;20228;-79
2021/11/16 02:12:54;;;;;;;74.67;34.43;;;;;;;5.68;84.48;101718.75;5043506;28;20225;-80
2021/11/16 02:15:21;;;;;;;67.13;34.37;;;;;;;5.70;84.53;101719.66;5032813;28;20205;-79
2021/11/16 02:17:48;;;;;;;73.20;32.77;;;;;;;5.70;84.26;101719.66;5026804;28;20229;-81
2021/11/16 02:20:18;;;;;;;69.27;32.83;;;;;;;5.73;84.79;101719.75;5022385;28;20224;-80
2021/11/16 02:22:46;;;;;;;74.10;34.30;;;;;;;5.75;84.36;101728.44;5021596;28;20202;-80
2021/11/16 02:25:12;;;;;;;79.50;35.70;;;;;;;5.72;84.63;101724.03;5026408;28;20230;-80
2021/11/16 02:27:39;;;;;;;70.40;34.27;;;;;;;5.74;84.52;101716.28;5022087;28;20202;-81
2021/11/16 02:30:07;;;;;;;71.20;33.37;;;;;;;5.73;84.30;101710.25;5018169;28;20268;-80
2021/11/16 02:32:34;;;;;;;66.27;32.10;;;;;;;5.74;84.40;101713.72;5023645;28;20268;-79
2021/11/16 02:35:01;;;;;;;69.00;32.73;;;;;;;5.73;84.96;101710.25;5028935;28;20247;-79
2021/11/16 02:37:31;;;;;;;74.73;33.67;;;;;;;5.72;84.63;101697.25;5025516;28;20248;-80
2021/11/16 02:39:59;;;;;;;77.23;34.53;;;;;;;5.71;84.68;101693.81;5021363;28;20233;-80
2021/11/16 02:42:26;;;;;;;66.23;32.93;;;;;;;5.74;84.81;101698.16;5022036;28;20291;-80
2021/11/16 02:44:52;;;;;;;74.43;34.97;;;;;;;5.68;84.84;101691.13;5025031;28;20271;-80
2021/11/16 02:47:19;;;;;;;73.73;33.23;;;;;;;5.64;84.77;101683.28;5018387;28;20252;-79
2021/11/16 02:49:46;;;;;;;82.10;33.97;;;;;;;5.63;85.06;101682.41;5019123;28;20206;-80
2021/11/16 02:52:13;;;;;;;74.47;34.70;;;;;;;5.60;85.57;101664.19;5022705;28;20713;-80
2021/11/16 02:54:40;;;;;;;76.27;33.87;;;;;;;5.62;85.13;101667.69;5020261;28;20268;-80
2021/11/16 02:57:10;;;;;;;71.47;33.37;;;;;;;5.65;85.17;101664.28;5019901;28;20841;-80
2021/11/16 02:59:36;;;;;;;70.47;32.67;;;;;;;5.62;85.48;101672.88;5025829;28;20248;-80
2021/11/16 03:02:03;;;;;;;69.57;32.97;;;;;;;5.62;85.09;101674.59;5018703;28;20229;-81
2021/11/16 03:04:33;;;;;;;78.67;34.73;;;;;;;5.64;84.79;101667.72;5023075;28;20201;-82
2021/11/16 03:07:00;;;;;;;75.10;34.97;;;;;;;5.63;85.41;101676.31;5020597;28;20204;-81
2021/11/16 03:09:29;;;;;;;75.80;34.33;;;;;;;5.64;84.96;101670.31;5020621;28;20250;-82
2021/11/16 03:11:55;;;;;;;76.00;33.60;;;;;;;5.64;84.59;101681.53;5021016;28;20233;-82
2021/11/16 03:14:24;;;;;;;76.57;34.13;;;;;;;5.59;85.25;101672.81;5020734;28;20203;-82
2021/11/16 03:16:51;;;;;;;78.23;35.73;;;;;;;5.60;85.64;101658.16;5020695;28;20265;-81
2021/11/16 03:19:17;;;;;;;75.03;33.30;;;;;;;5.63;85.12;101655.59;5020197;28;20209;-81
2021/11/16 03:21:53;;;;;;;77.73;34.73;;;;;;;5.65;84.53;101666.88;5027946;28;20280;-83
2021/11/16 03:24:20;;;;;;;78.87;34.40;;;;;;;5.65;84.65;101679.81;5023281;28;20205;-82
2021/11/16 03:26:46;;;;;;;80.70;35.43;;;;;;;5.63;84.84;101672.03;5024791;28;20216;-82
2021/11/16 03:29:13;;;;;;;82.00;36.03;;;;;;;5.66;85.11;101676.41;5021405;28;20255;-82
2021/11/16 03:31:48;;;;;;;83.10;36.00;;;;;;;5.61;84.83;101676.31;5023575;28;20303;-82
2021/11/16 03:34:15;;;;;;;78.20;34.97;;;;;;;5.58;85.47;101665.88;5024811;28;20209;-82
2021/11/16 03:36:41;;;;;;;79.87;35.03;;;;;;;5.58;85.80;101652.94;5024838;28;20257;-82
2021/11/16 03:39:08;;;;;;;79.93;35.03;;;;;;;5.64;85.32;101665.13;5023192;28;20253;-82
2021/11/16 03:41:34;;;;;;;76.17;34.43;;;;;;;5.65;85.27;101669.47;5022132;28;20290;-82
2021/11/16 03:44:00;;;;;;;78.33;34.47;;;;;;;5.64;85.40;101667.72;5023443;28;20744;-83
2021/11/16 03:46:27;;;;;;;86.93;37.00;;;;;;;5.55;85.57;101655.47;5023887;28;20213;-81
2021/11/16 03:48:55;;;;;;;82.30;34.93;;;;;;;5.55;85.82;101640.78;5023356;28;20547;-83
2021/11/16 03:51:22;;;;;;;82.97;35.80;;;;;;;5.63;85.40;101648.72;5022052;28;20260;-82
2021/11/16 03:53:49;;;;;;;70.67;34.53;;;;;;;5.56;85.82;101641.66;5021825;28;20257;-81
2021/11/16 03:56:17;;;;;;;77.07;34.80;;;;;;;5.61;85.45;101633.97;5022966;28;20243;-82
2021/11/16 03:58:46;;;;;;;83.83;35.10;;;;;;;5.54;86.24;101633.84;5024835;28;20229;-81
2021/11/16 04:01:13;;;;;;;80.73;34.93;;;;;;;5.60;86.07;101635.69;5022896;28;20721;-83
2021/11/16 04:03:41;;;;;;;86.43;37.50;;;;;;;5.61;86.23;101633.97;5024697;28;20213;-82
2021/11/16 04:06:10;;;;;;;87.17;37.50;;;;;;;5.55;86.12;101616.63;5024998;28;20207;-81
2021/11/16 04:08:37;;;;;;;85.83;36.30;;;;;;;5.47;86.53;101600.91;5022393;28;20217;-81
2021/11/16 04:11:04;;;;;;;78.00;35.30;;;;;;;5.56;86.60;101603.69;5023842;28;20234;-81
2021/11/16 04:13:30;;;;;;;84.40;35.57;;;;;;;5.59;86.13;101618.44;5023340;28;20308;-81
2021/11/16 04:15:57;;;;;;;81.53;35.50;;;;;;;5.63;85.79;101624.53;5024028;28;20213;-82
2021/11/16 04:18:24;;;;;;;84.37;36.97;;;;;;;5.58;86.24;101622.72;5022853;28;20499;-82
2021/11/16 04:20:54;;;;;;;81.17;35.10;;;;;;;5.64;85.38;101629.75;5023004;28;20239;-81
2021/11/16 04:23:24;;;;;;;87.03;39.80;;;;;;;5.67;85.14;101636.69;5022566;28;20316;-81
2021/11/16 04:25:51;;;;;;;81.07;36.43;;;;;;;5.62;85.59;101638.34;5023888;28;20280;-82
2021/11/16 04:28:18;;;;;;;83.43;36.33;;;;;;;5.65;85.37;101631.50;5024693;28;20206;-82
2021/11/16 04:30:46;;;;;;;86.63;38.30;;;;;;;5.64;85.88;101627.16;5022271;28;20234;-81
2021/11/16 04:33:14;;;;;;;93.60;40.33;;;;;;;5.64;86.17;101619.38;5018974;28;20230;-84
2021/11/16 04:35:41;;;;;;;79.20;34.07;;;;;;;5.62;85.89;101622.78;5022346;28;20607;-81
2021/11/16 04:38:10;;;;;;;83.83;35.47;;;;;;;5.54;86.15;101604.50;5022779;28;20240;-81
2021/11/16 04:40:41;;;;;;;88.30;35.33;;;;;;;5.58;86.66;101599.41;5022718;28;20218;-81
2021/11/16 04:43:10;;;;;;;86.40;36.30;;;;;;;5.64;85.79;101597.78;5024344;28;20213;-81
2021/11/16 04:45:39;;;;;;;78.73;35.43;;;;;;;5.66;85.80;101615.09;5020584;28;20303;-82
2021/11/16 04:48:11;;;;;;;88.90;37.07;;;;;;;5.68;85.91;101612.56;5022875;28;20233;-82
2021/11/16 04:50:49;;;;;;;98.27;41.37;;;;;;;5.64;85.70;101614.19;5024053;28;20278;-81
2021/11/16 04:53:38;;;;;;;107.87;42.93;;;;;;;5.61;85.56;101606.38;5023781;28;20210;-81
2021/11/16 05:04:21;;;;;;;91.50;40.43;;;;;;;5.57;85.97;101583.84;5020904;28;20210;-81
2021/11/16 05:06:48;;;;;;;81.43;34.17;;;;;;;5.55;86.43;101576.06;5022323;28;20204;-82
2021/11/16 05:09:15;;;;;;;79.43;33.70;;;;;;;5.56;86.50;101575.19;5022272;28;20210;-81
2021/11/16 05:11:43;;;;;;;85.33;33.57;;;;;;;5.57;86.42;101570.91;5019180;28;20225;-83
2021/11/16 05:14:10;;;;;;;76.47;32.73;;;;;;;5.62;86.51;101574.44;5022439;28;20204;-83
2021/11/16 05:16:36;;;;;;;79.83;36.73;;;;;;;5.61;86.22;101569.22;5022934;28;20210;-82
2021/11/16 05:19:03;;;;;;;80.00;34.23;;;;;;;5.60;86.79;101559.72;5019503;28;20333;-82
2021/11/16 05:21:29;;;;;;;85.17;33.60;;;;;;;5.62;87.03;101551.13;5022544;28;20768;-82
2021/11/16 05:23:58;;;;;;;72.57;33.00;;;;;;;5.58;86.86;101555.38;5031461;28;20213;-82
2021/11/16 05:26:27;;;;;;;79.13;32.47;;;;;;;5.57;86.85;101557.97;5023830;28;20213;-82
2021/11/16 05:28:55;;;;;;;73.70;30.97;;;;;;;5.56;86.73;101541.53;5022125;28;20204;-81
2021/11/16 05:31:22;;;;;;;74.37;32.73;;;;;;;5.61;86.86;101546.81;5021548;28;20276;-82
2021/11/16 05:33:50;;;;;;;73.33;31.83;;;;;;;5.61;86.89;101549.41;5022400;28;20208;-81
2021/11/16 05:36:17;;;;;;;76.60;33.30;;;;;;;5.63;87.06;101539.94;5022254;28;20224;-81
2021/11/16 05:38:46;;;;;;;79.37;32.97;;;;;;;5.57;87.68;101529.47;5021528;28;20229;-82
2021/11/16 05:41:13;;;;;;;77.37;31.73;;;;;;;5.56;87.68;101525.97;5022246;28;20276;-81
2021/11/16 05:43:42;;;;;;;82.73;32.73;;;;;;;5.60;87.02;101533.81;5020007;28;20208;-82
2021/11/16 05:46:10;;;;;;;82.40;33.50;;;;;;;5.61;87.16;101532.97;5021045;28;20264;-81
2021/11/16 05:48:38;;;;;;;76.97;32.47;;;;;;;5.55;87.18;101532.03;5022123;28;20210;-82
2021/11/16 05:51:06;;;;;;;83.17;33.97;;;;;;;5.53;87.04;101538.00;5021287;28;20303;-82
2021/11/16 05:53:34;;;;;;;77.70;33.70;;;;;;;5.54;86.91;101544.94;5022753;28;20201;-82
2021/11/16 05:56:00;;;;;;;76.90;32.57;;;;;;;5.58;86.48;101552.78;5022396;28;20230;-82
2021/11/16 05:58:28;;;;;;;77.17;33.27;;;;;;;5.59;87.11;101564.03;5021141;28;20300;-82
2021/11/16 06:01:01;;;;;;;75.17;32.33;;;;;;;5.59;87.04;101564.03;5022499;28;20233;-83
2021/11/16 06:03:29;;;;;;;73.47;32.67;;;;;;;5.51;87.59;101560.41;5021726;28;20210;-82
2021/11/16 06:05:55;;;;;;;75.03;29.93;;;;;;;5.53;86.89;101559.59;5019876;28;20217;-81
2021/11/16 06:08:23;;;;;;;82.93;33.70;;;;;;;5.55;86.81;101570.00;5021367;28;20210;-82
2021/11/16 06:10:49;;;;;;;79.23;33.53;;;;;;;5.51;86.76;101570.75;5020490;28;20231;-82
2021/11/16 06:13:16;;;;;;;81.27;32.27;;;;;;;5.48;87.69;101558.63;5021232;28;20219;-82
2021/11/16 06:15:44;;;;;;;82.30;33.43;;;;;;;5.48;87.68;101544.81;5021354;28;20200;-81
2021/11/16 06:18:11;;;;;;;76.43;32.47;;;;;;;5.48;87.58;101547.41;5020859;28;20312;-82
2021/11/16 06:20:41;;;;;;;76.93;32.33;;;;;;;5.48;87.57;101542.22;5021139;28;20232;-80
2021/11/16 06:23:10;;;;;;;80.87;31.03;;;;;;;5.53;87.23;101556.13;5019922;28;20677;-81
2021/11/16 06:25:37;;;;;;;84.67;30.97;;;;;;;5.51;86.81;101565.56;5023039;28;20581;-81
2021/11/16 06:28:04;;;;;;;79.97;31.37;;;;;;;5.52;86.85;101575.09;5022334;28;20257;-81
2021/11/16 06:30:31;;;;;;;79.23;31.40;;;;;;;5.52;86.66;101582.88;5021797;28;20217;-82
2021/11/16 06:32:57;;;;;;;80.57;33.17;;;;;;;5.56;86.99;101574.31;5021478;28;20211;-81
2021/11/16 06:35:24;;;;;;;81.83;32.57;;;;;;;5.52;87.40;101569.94;5022797;28;20651;-81
2021/11/16 06:37:53;;;;;;;84.93;34.87;;;;;;;5.52;87.40;101567.34;5019649;28;20237;-81
2021/11/16 06:40:19;;;;;;;82.03;33.10;;;;;;;5.52;87.64;101555.25;5019738;28;20242;-81
2021/11/16 06:42:47;;;;;;;76.57;33.20;;;;;;;5.54;87.27;101548.38;5019519;28;20209;-82
2021/11/16 06:45:13;;;;;;;77.80;31.70;;;;;;;5.51;87.52;101550.03;5022962;28;20217;-82
2021/11/16 06:47:40;;;;;;;76.17;32.87;;;;;;;5.51;87.83;101553.53;5021113;28;20244;-81
2021/11/16 06:50:07;;;;;;;75.90;32.93;;;;;;;5.54;87.77;101550.97;5021346;28;20616;-82
2021/11/16 06:52:36;;;;;;;84.43;31.77;;;;;;;5.59;87.59;101543.31;5021532;28;20229;-82
2021/11/16 06:55:05;;;;;;;78.93;31.07;;;;;;;5.56;87.51;101540.66;5022756;28;20245;-81
2021/11/16 06:57:31;;;;;;;69.70;30.07;;;;;;;5.58;86.78;101550.19;5025159;28;20640;-83
2021/11/16 06:59:59;;;;;;;73.43;31.37;;;;;;;5.57;86.68;101560.56;5023849;28;20235;-82
2021/11/16 07:02:27;;;;;;;67.93;29.33;;;;;;;5.49;87.86;101557.81;5024562;28;20286;-82
2021/11/16 07:04:54;;;;;;;70.07;29.57;;;;;;;5.49;87.08;101552.63;5023795;28;20205;-81
2021/11/16 07:07:20;;;;;;;75.33;30.13;;;;;;;5.52;87.54;101550.06;5025217;28;20290;-82
2021/11/16 07:09:47;;;;;;;66.77;29.77;;;;;;;5.47;87.45;101551.72;5024610;28;20213;-81
2021/11/16 07:12:18;;;;;;;75.67;30.37;;;;;;;5.47;87.92;101535.28;5024628;28;20293;-81
2021/11/16 07:14:45;;;;;;;69.50;29.80;;;;;;;5.50;87.90;101546.59;5025935;28;20239;-82
2021/11/16 07:17:14;;;;;;;81.20;29.20;;;;;;;5.56;87.65;101558.78;5024751;28;20272;-82
2021/11/16 07:19:44;;;;;;;70.23;29.63;;;;;;;5.53;87.19;101561.31;5027315;28;20224;-84
2021/11/16 07:22:13;;;;;;;74.67;31.00;;;;;;;5.54;87.39;101555.28;5025391;28;20231;-82
2021/11/16 07:24:45;;;;;;;76.53;29.73;;;;;;;5.54;87.25;101566.53;5027176;28;20202;-83
2021/11/16 07:27:12;;;;;;;68.30;27.57;;;;;;;5.56;87.22;101574.31;5025405;28;20209;-83
2021/11/16 07:29:43;;;;;;;90.23;51.20;;;;;;;5.55;87.09;101576.06;5029441;28;20208;-84
2021/11/16 07:32:12;;;;;;;72.87;30.27;;;;;;;5.55;87.04;101575.19;5028088;28;20764;-84
2021/11/16 07:34:39;;;;;;;79.33;30.70;;;;;;;5.56;87.03;101585.56;5024846;28;20207;-83
2021/11/16 07:37:10;;;;;;;77.23;30.40;;;;;;;5.57;86.67;101587.31;5026050;28;20208;-82
2021/11/16 07:39:50;;;;;;;74.30;32.27;;;;;;;5.54;86.97;101589.81;5027245;28;20236;-83
2021/11/16 07:42:18;;;;;;;78.50;30.57;;;;;;;5.53;86.75;101582.91;5028567;28;20231;-83
2021/11/16 07:45:02;;;;;;;85.37;33.27;;;;;;;5.50;86.79;101574.22;5023916;28;20234;-83
2021/11/16 07:47:45;;;;;;;77.53;30.57;;;;;;;5.53;87.61;101559.59;5025481;28;20201;-83
2021/11/16 07:50:16;;;;;;;73.00;29.97;;;;;;;5.48;87.63;101556.03;5024371;28;20201;-84
2021/11/16 07:52:45;;;;;;;72.40;28.97;;;;;;;5.45;88.04;101543.06;5025246;28;20321;-83
2021/11/16 07:55:22;;;;;;;111.17;46.47;;;;;;;5.48;88.15;101527.56;5030197;28;20202;-84
2021/11/16 07:57:49;;;;;;;69.37;29.77;;;;;;;5.54;87.75;101543.22;5026434;28;20199;-84
2021/11/16 08:00:22;;;;;;;67.10;29.00;;;;;;;5.55;88.03;101554.47;5025616;28;20226;-84
2021/11/16 08:02:55;;;;;;;73.67;30.47;;;;;;;5.58;87.66;101557.97;5031824;28;20550;-83
2021/11/16 08:05:34;;;;;;;67.73;29.17;;;;;;;5.62;87.38;101560.63;5033450;28;20259;-83
2021/11/16 08:08:19;;;;;;;75.20;29.93;;;;;;;5.54;87.63;101566.53;5032300;28;20200;-83
2021/11/16 08:10:49;;;;;;;73.77;29.93;;;;;;;5.59;88.20;101553.69;5029830;28;20234;-83
2021/11/16 08:13:19;;;;;;;65.77;30.73;;;;;;;5.61;87.69;101559.75;5027960;28;20671;-83
2021/11/16 08:15:47;;;;;;;69.30;29.20;;;;;;;5.58;87.88;101546.75;5021556;28;20298;-83
2021/11/16 08:18:15;;;;;;;70.53;30.00;;;;;;;5.56;88.27;101541.53;5022461;28;20264;-82
2021/11/16 08:20:41;;;;;;;67.40;29.43;;;;;;;5.52;88.51;101542.31;5031999;28;20244;-83
2021/11/16 08:23:09;;;;;;;64.37;26.63;;;;;;;5.14;88.54;101544.13;5028648;28;20267;-83
2021/11/16 08:25:37;;;;;;;61.23;27.97;;;;;;;5.26;89.29;101510.72;5033332;28;20206;-83
2021/11/16 08:28:05;;;;;;;63.73;27.03;;;;;;;5.26;89.40;101502.09;5025212;28;20247;-84
2021/11/16 08:30:35;;;;;;;60.90;26.00;;;;;;;5.32;89.47;101489.28;5026327;28;20206;-83
2021/11/16 08:33:05;;;;;;;61.30;25.97;;;;;;;5.43;89.00;101503.31;5023847;28;20681;-83
2021/11/16 08:35:33;;;;;;;53.03;24.67;;;;;;;5.46;88.89;101521.47;5025476;28;20206;-84
2021/11/16 08:38:05;;;;;;;58.70;25.00;;;;;;;5.49;88.48;101518.97;5026613;28;20691;-84
2021/11/16 08:40:36;;;;;;;57.20;25.50;;;;;;;5.50;89.33;101512.06;5024905;28;20828;-84
2021/11/16 08:43:11;;;;;;;51.87;25.00;;;;;;;5.50;89.07;101522.41;5025376;28;20213;-84
2021/11/16 08:45:39;;;;;;;49.30;24.00;;;;;;;5.49;89.45;101497.34;5024952;28;20209;-84
2021/11/16 08:48:12;;;;;;;56.73;26.50;;;;;;;5.44;89.09;101506.75;5024908;28;20202;-84
2021/11/16 08:50:41;;;;;;;58.20;25.50;;;;;;;5.34;89.05;101521.25;5023101;28;20283;-84
2021/11/16 08:53:10;;;;;;;64.87;25.90;;;;;;;5.45;88.96;101509.38;5025312;28;20268;-84
2021/11/16 08:55:39;;;;;;;65.70;25.23;;;;;;;5.50;88.85;101501.69;5023706;28;20262;-84
2021/11/16 08:58:09;;;;;;;56.83;24.87;;;;;;;5.54;88.37;101509.53;5026709;28;20574;-84
2021/11/16 09:00:39;;;;;;;54.80;24.20;;;;;;;5.56;88.74;101522.53;5025076;28;20237;-84
2021/11/16 09:03:09;;;;;;;53.30;25.10;;;;;;;5.60;88.51;101515.69;5024248;28;20218;-84
2021/11/16 09:05:41;;;;;;;57.97;25.43;;;;;;;5.64;87.94;101514.91;5024397;28;20252;-85
2021/11/16 09:08:13;;;;;;;51.57;24.60;;;;;;;5.60;89.44;101495.84;5022002;28;20210;-84
2021/11/16 09:10:42;;;;;;;60.10;26.60;;;;;;;5.64;89.20;101495.06;5021237;28;20230;-83
2021/11/16 09:13:11;;;;;;;68.90;26.07;;;;;;;5.62;88.25;101491.56;5021747;28;20798;-84
2021/11/16 09:15:41;;;;;;;67.10;26.03;;;;;;;5.63;88.58;101492.44;5022561;28;20212;-83
2021/11/16 09:18:10;;;;;;;65.30;26.30;;;;;;;5.64;88.24;101501.97;5024844;28;20366;-84
2021/11/16 09:20:39;;;;;;;67.67;26.20;;;;;;;5.60;88.25;101502.75;5025043;28;20276;-84
2021/11/16 09:23:07;;;;;;;65.40;26.23;;;;;;;5.57;88.41;101503.56;5018620;28;20214;-84
2021/11/16 09:25:36;;;;;;;62.80;26.20;;;;;;;5.31;88.45;101510.81;5029996;28;20207;-83
2021/11/16 09:28:22;;;;;;;69.13;28.13;;;;;;;5.23;89.80;101477.00;5020078;28;20233;-83
2021/11/16 09:30:50;;;;;;;66.10;27.43;;;;;;;5.36;89.64;101455.69;5025104;28;20234;-83
2021/11/16 09:33:19;;;;;;;61.60;25.70;;;;;;;5.47;89.71;101468.84;5027685;28;20227;-83
2021/11/16 09:36:00;;;;;;;58.33;26.13;;;;;;;5.55;89.50;101476.78;5023315;28;20209;-84
2021/11/16 09:38:45;;;;;;;65.27;27.50;;;;;;;5.54;89.35;101480.19;5024094;28;20200;-83
2021/11/16 09:41:16;;;;;;;59.20;25.07;;;;;;;5.54;89.32;101475.00;5020800;28;20250;-85
2021/11/16 09:43:43;;;;;;;63.13;25.97;;;;;;;5.56;89.30;101471.59;5024936;28;20212;-84
2021/11/16 09:46:12;;;;;;;61.97;25.57;;;;;;;5.60;89.12;101474.25;5023389;28;20212;-84
2021/11/16 09:48:56;;;;;;;65.93;26.63;;;;;;;5.59;88.84;101475.97;5024531;28;20210;-86
2021/11/16 09:51:24;;;;;;;67.70;27.50;;;;;;;5.42;89.34;101467.03;5022025;28;20706;-84
2021/11/16 09:54:01;;;;;;;74.10;27.83;;;;;;;5.44;89.67;101452.38;5020784;28;20208;-83
2021/11/16 09:56:29;;;;;;;112.13;47.20;;;;;;;5.40;89.50;101451.44;5026420;28;20205;-83
2021/11/16 09:58:58;;;;;;;83.00;37.97;;;;;;;5.45;90.11;101442.06;5026703;28;20225;-84
2021/11/16 10:01:33;;;;;;;92.93;41.60;;;;;;;5.52;90.57;101433.53;5026478;28;20218;-84
2021/11/16 10:04:17;;;;;;;61.37;27.80;;;;;;;5.47;89.75;101442.97;5025998;28;20213;-83
2021/11/16 10:06:45;;;;;;;68.93;28.10;;;;;;;5.52;89.59;101451.66;5025845;28;20670;-85
2021/11/16 10:09:12;;;;;;;61.13;26.43;;;;;;;5.60;89.99;101445.78;5025737;28;20923;-84
2021/11/16 10:11:44;;;;;;;61.20;26.20;;;;;;;5.63;89.39;101451.88;5023205;28;20252;-80
2021/11/16 10:14:17;;;;;;;64.73;26.93;;;;;;;5.58;89.39;101449.19;5020141;28;20284;-81
2021/11/16 10:16:44;;;;;;;64.60;26.67;;;;;;;5.64;89.64;101442.38;5019185;28;20760;-81
2021/11/16 10:19:12;;;;;;;55.70;26.00;;;;;;;5.66;89.61;101449.31;5018713;28;20708;-81
2021/11/16 10:21:39;;;;;;;49.83;22.83;;;;;;;5.55;88.93;101456.06;5019899;28;20234;-81
2021/11/16 10:24:26;;;;;;;71.30;34.63;;;;;;;5.55;90.92;101430.16;5019989;28;20211;-81
2021/11/16 10:26:52;;;;;;;50.73;23.27;;;;;;;5.56;91.10;101385.28;5020964;28;20208;-80
2021/11/16 10:29:19;;;;;;;50.27;23.57;;;;;;;5.50;90.21;101398.97;5018511;28;20214;-80
2021/11/16 10:31:47;;;;;;;57.23;25.07;;;;;;;5.63;91.71;101368.09;5018632;28;20274;-81
2021/11/16 10:34:14;;;;;;;49.67;22.57;;;;;;;5.85;95.20;101276.06;5020379;28;20745;-80
2021/11/16 10:36:40;;;;;;;47.70;23.47;;;;;;;5.85;93.26;101301.97;5018781;28;20209;-80
2021/11/16 10:39:07;;;;;;;48.20;21.00;;;;;;;5.83;92.67;101330.44;5018664;28;20236;-81
2021/11/16 10:41:38;;;;;;;49.97;22.07;;;;;;;5.92;92.46;101319.34;5019344;28;20243;-81
2021/11/16 10:44:06;;;;;;;41.13;20.27;;;;;;;5.97;92.81;101341.91;5021932;28;20218;-81
2021/11/16 10:46:35;;;;;;;45.70;22.17;;;;;;;5.99;91.45;101375.63;5021149;28;20216;-81
2021/11/16 10:49:09;;;;;;;51.53;22.03;;;;;;;5.97;89.49;101414.47;5019183;28;20213;-81
2021/11/16 10:51:36;;;;;;;45.30;22.27;;;;;;;6.01;89.51;101437.88;5020472;28;20225;-81
2021/11/16 10:54:04;;;;;;;45.83;23.07;;;;;;;6.07;88.50;101464.75;5020909;28;20585;-80
2021/11/16 10:56:33;;;;;;;49.33;21.93;;;;;;;6.08;88.58;101468.19;5020633;28;20201;-81
2021/11/16 10:59:06;;;;;;;36.43;19.73;;;;;;;6.29;92.13;101349.25;5019701;28;20236;-81
2021/11/16 11:01:42;;;;;;;37.13;19.03;;;;;;;6.31;90.71;101370.91;5020667;28;20703;-81
2021/11/16 11:04:15;;;;;;;43.40;20.27;;;;;;;6.32;89.79;101396.00;5022439;28;20361;-81
2021/11/16 11:06:44;;;;;;;35.83;17.80;;;;;;;6.14;88.06;101435.47;5020926;28;20206;-81
2021/11/16 11:09:11;;;;;;;32.30;18.40;;;;;;;5.91;88.60;101455.81;5022391;28;20251;-81
2021/11/16 11:11:40;;;;;;;39.50;17.93;;;;;;;6.00;88.54;101454.25;5022054;28;20645;-81
2021/11/16 11:14:10;;;;;;;33.57;17.67;;;;;;;5.97;88.54;101442.13;5021840;28;20203;-81
2021/11/16 11:16:38;;;;;;;33.83;18.00;;;;;;;5.96;88.71;101425.66;5018847;28;20201;-81
2021/11/16 11:19:06;;;;;;;34.93;18.43;;;;;;;6.02;89.00;101426.63;5020663;28;20778;-81
2021/11/16 11:21:38;;;;;;;35.97;18.47;;;;;;;6.06;88.53;101407.69;5019618;28;20232;-87
2021/11/16 11:24:18;;;;;;;31.67;17.30;;;;;;;6.10;88.13;101427.63;5019995;28;20212;-83
2021/11/16 11:26:49;;;;;;;28.00;16.33;;;;;;;6.07;88.47;101419.81;5019955;28;20208;-82
2021/11/16 11:29:37;;;;;;;29.73;16.90;;;;;;;6.08;88.69;101430.19;5019286;28;20276;-82
2021/11/16 11:32:15;;;;;;;26.77;16.70;;;;;;;6.16;88.42;101425.13;5021370;28;20230;-82
2021/11/16 11:34:46;;;;;;;29.23;17.80;;;;;;;6.01;88.83;101405.03;5022025;28;20201;-82